sensor_id;sensor_type;location;lat;lon;timestamp;temperature;humidity
48488;DHT22;34289;48.572;13.378;2022-12-29T00:02:03;-1.40;99.90
48488;DHT22;34289;48.572;13.378;2022-12-29T00:04:28;-1.50;99.90
48488;DHT22;34289;48.572;13.378;2022-12-29T00:06:54;-1.70;99.90
48488;DHT22;34289;48.572;13.378;2022-12-29T00:09:21;-1.70;99.90
48488;DHT22;34289;48.572;13.378;2022-12-29T00:11:50;-1.70;99.90
48488;DHT22;34289;48.572;13.378;2022-12-29T00:14:15;-1.60;99.90
48488;DHT22;34289;48.572;13.378;2022-12-29T00:17:00;-1.40;99.90
48488;DHT22;34289;48.572;13.378;2022-12-29T00:19:26;-1.30;99.90
48488;DHT22;34289;48.572;13.378;2022-12-29T00:22:12;-1.30;99.90
48488;DHT22;34289;48.572;13.378;2022-12-29T00:24:56;-1.40;99.90
48488;DHT22;34289;48.572;13.378;2022-12-29T00:27:41;-1.40;99.90
48488;DHT22;34289;48.572;13.378;2022-12-29T00:30:25;-1.40;99.90
48488;DHT22;34289;48.572;13.378;2022-12-29T00:33:10;-1.50;99.90
48488;DHT22;34289;48.572;13.378;2022-12-29T00:36:40;-1.60;99.90
48488;DHT22;34289;48.572;13.378;2022-12-29T00:39:13;-1.70;99.90
48488;DHT22;34289;48.572;13.378;2022-12-29T00:42:04;-1.60;99.90
48488;DHT22;34289;48.572;13.378;2022-12-29T00:45:03;-1.50;99.90
48488;DHT22;34289;48.572;13.378;2022-12-29T00:47:28;-1.60;99.90
48488;DHT22;34289;48.572;13.378;2022-12-29T00:49:54;-1.70;99.90
48488;DHT22;34289;48.572;13.378;2022-12-29T00:52:19;-1.70;99.90
48488;DHT22;34289;48.572;13.378;2022-12-29T00:54:46;-1.80;99.90
48488;DHT22;34289;48.572;13.378;2022-12-29T00:57:12;-1.80;99.90
48488;DHT22;34289;48.572;13.378;2022-12-29T00:59:39;-1.70;99.90
48488;DHT22;34289;48.572;13.378;2022-12-29T01:02:05;-1.50;99.90
48488;DHT22;34289;48.572;13.378;2022-12-29T01:04:30;-1.50;99.90
48488;DHT22;34289;48.572;13.378;2022-12-29T01:06:56;-1.50;99.90
48488;DHT22;34289;48.572;13.378;2022-12-29T01:09:22;-1.40;99.90
48488;DHT22;34289;48.572;13.378;2022-12-29T01:12:07;-1.50;99.90
48488;DHT22;34289;48.572;13.378;2022-12-29T01:14:33;-1.60;99.90
48488;DHT22;34289;48.572;13.378;2022-12-29T01:16:59;-1.60;99.90
48488;DHT22;34289;48.572;13.378;2022-12-29T01:19:25;-1.50;99.90
48488;DHT22;34289;48.572;13.378;2022-12-29T01:21:51;-1.40;99.90
48488;DHT22;34289;48.572;13.378;2022-12-29T01:24:19;-1.60;99.90
48488;DHT22;34289;48.572;13.378;2022-12-29T01:26:45;-1.60;99.90
48488;DHT22;34289;48.572;13.378;2022-12-29T01:29:10;-1.80;99.90
48488;DHT22;34289;48.572;13.378;2022-12-29T01:31:36;-1.80;99.90
48488;DHT22;34289;48.572;13.378;2022-12-29T01:34:03;-1.90;99.90
48488;DHT22;34289;48.572;13.378;2022-12-29T01:36:28;-1.90;99.90
48488;DHT22;34289;48.572;13.378;2022-12-29T01:38:55;-1.90;99.90
48488;DHT22;34289;48.572;13.378;2022-12-29T01:41:22;-1.90;99.90
48488;DHT22;34289;48.572;13.378;2022-12-29T01:43:53;-1.90;99.90
48488;DHT22;34289;48.572;13.378;2022-12-29T01:51:41;-1.80;99.90
48488;DHT22;34289;48.572;13.378;2022-12-29T01:56:47;-1.80;99.90
48488;DHT22;34289;48.572;13.378;2022-12-29T01:59:17;-1.80;99.90
48488;DHT22;34289;48.572;13.378;2022-12-29T02:01:45;-1.60;99.90
48488;DHT22;34289;48.572;13.378;2022-12-29T02:04:11;-1.60;99.90
48488;DHT22;34289;48.572;13.378;2022-12-29T02:06:43;-1.70;99.90
48488;DHT22;34289;48.572;13.378;2022-12-29T02:09:10;-1.80;99.90
48488;DHT22;34289;48.572;13.378;2022-12-29T02:11:36;-1.80;99.90
48488;DHT22;34289;48.572;13.378;2022-12-29T02:14:09;-2.00;99.90
48488;DHT22;34289;48.572;13.378;2022-12-29T02:22:02;-2.00;99.90
48488;DHT22;34289;48.572;13.378;2022-12-29T02:30:03;-2.20;99.90
48488;DHT22;34289;48.572;13.378;2022-12-29T02:35:33;-1.90;99.90
48488;DHT22;34289;48.572;13.378;2022-12-29T02:38:07;-1.80;99.90
48488;DHT22;34289;48.572;13.378;2022-12-29T02:40:48;-1.80;99.90
48488;DHT22;34289;48.572;13.378;2022-12-29T02:45:56;-2.00;99.90
48488;DHT22;34289;48.572;13.378;2022-12-29T02:48:29;-2.10;99.90
48488;DHT22;34289;48.572;13.378;2022-12-29T02:51:14;-2.10;99.90
48488;DHT22;34289;48.572;13.378;2022-12-29T02:53:40;-2.00;99.90
48488;DHT22;34289;48.572;13.378;2022-12-29T02:56:28;-2.10;99.90
48488;DHT22;34289;48.572;13.378;2022-12-29T02:58:53;-2.10;99.90
48488;DHT22;34289;48.572;13.378;2022-12-29T03:01:29;-2.10;99.90
48488;DHT22;34289;48.572;13.378;2022-12-29T03:11:53;-2.10;99.90
48488;DHT22;34289;48.572;13.378;2022-12-29T03:20:25;-2.40;99.90
48488;DHT22;34289;48.572;13.378;2022-12-29T03:22:54;-2.60;99.90
48488;DHT22;34289;48.572;13.378;2022-12-29T03:25:30;-2.60;99.90
48488;DHT22;34289;48.572;13.378;2022-12-29T03:28:00;-2.60;99.90
48488;DHT22;34289;48.572;13.378;2022-12-29T03:30:28;-2.50;99.90
48488;DHT22;34289;48.572;13.378;2022-12-29T03:33:01;-2.50;99.90
48488;DHT22;34289;48.572;13.378;2022-12-29T03:35:30;-2.50;99.90
48488;DHT22;34289;48.572;13.378;2022-12-29T03:38:09;-2.30;99.90
48488;DHT22;34289;48.572;13.378;2022-12-29T03:40:38;-2.50;99.90
48488;DHT22;34289;48.572;13.378;2022-12-29T03:43:05;-2.40;99.90
48488;DHT22;34289;48.572;13.378;2022-12-29T03:45:31;-2.30;99.90
48488;DHT22;34289;48.572;13.378;2022-12-29T03:47:56;-2.50;99.90
48488;DHT22;34289;48.572;13.378;2022-12-29T03:50:22;-2.50;99.90
48488;DHT22;34289;48.572;13.378;2022-12-29T03:52:48;-2.40;99.90
48488;DHT22;34289;48.572;13.378;2022-12-29T03:55:13;-2.30;99.90
48488;DHT22;34289;48.572;13.378;2022-12-29T03:57:39;-2.50;99.90
48488;DHT22;34289;48.572;13.378;2022-12-29T04:00:06;-2.60;99.90
48488;DHT22;34289;48.572;13.378;2022-12-29T04:02:32;-2.50;99.90
48488;DHT22;34289;48.572;13.378;2022-12-29T04:04:57;-2.50;99.90
48488;DHT22;34289;48.572;13.378;2022-12-29T04:07:23;-2.50;99.90
48488;DHT22;34289;48.572;13.378;2022-12-29T04:09:48;-2.60;99.90
48488;DHT22;34289;48.572;13.378;2022-12-29T04:12:14;-2.80;99.90
48488;DHT22;34289;48.572;13.378;2022-12-29T04:14:40;-2.80;99.90
48488;DHT22;34289;48.572;13.378;2022-12-29T04:17:06;-2.80;99.90
48488;DHT22;34289;48.572;13.378;2022-12-29T04:19:31;-2.60;99.90
48488;DHT22;34289;48.572;13.378;2022-12-29T04:21:57;-2.50;99.90
48488;DHT22;34289;48.572;13.378;2022-12-29T04:24:23;-2.50;99.90
48488;DHT22;34289;48.572;13.378;2022-12-29T04:26:49;-2.60;99.90
48488;DHT22;34289;48.572;13.378;2022-12-29T04:29:14;-2.60;99.90
48488;DHT22;34289;48.572;13.378;2022-12-29T04:31:40;-2.40;99.90
48488;DHT22;34289;48.572;13.378;2022-12-29T04:34:06;-2.40;99.90
48488;DHT22;34289;48.572;13.378;2022-12-29T04:36:31;-2.50;99.90
48488;DHT22;34289;48.572;13.378;2022-12-29T04:38:57;-2.40;99.90
48488;DHT22;34289;48.572;13.378;2022-12-29T04:41:23;-2.40;99.90
48488;DHT22;34289;48.572;13.378;2022-12-29T04:43:48;-2.40;99.90
48488;DHT22;34289;48.572;13.378;2022-12-29T04:46:14;-2.50;99.90
48488;DHT22;34289;48.572;13.378;2022-12-29T04:48:42;-2.50;99.90
48488;DHT22;34289;48.572;13.378;2022-12-29T04:51:08;-2.50;99.90
48488;DHT22;34289;48.572;13.378;2022-12-29T04:53:33;-2.60;99.90
48488;DHT22;34289;48.572;13.378;2022-12-29T04:55:59;-2.60;99.90
48488;DHT22;34289;48.572;13.378;2022-12-29T04:58:24;-2.50;99.90
48488;DHT22;34289;48.572;13.378;2022-12-29T05:00:51;-2.50;99.90
48488;DHT22;34289;48.572;13.378;2022-12-29T05:03:17;-2.30;99.90
48488;DHT22;34289;48.572;13.378;2022-12-29T05:05:42;-2.30;99.90
48488;DHT22;34289;48.572;13.378;2022-12-29T05:08:08;-2.20;99.90
48488;DHT22;34289;48.572;13.378;2022-12-29T05:10:33;-2.20;99.90
48488;DHT22;34289;48.572;13.378;2022-12-29T05:12:59;-2.10;99.90
48488;DHT22;34289;48.572;13.378;2022-12-29T05:15:25;-2.10;99.90
48488;DHT22;34289;48.572;13.378;2022-12-29T05:17:50;-2.20;99.90
48488;DHT22;34289;48.572;13.378;2022-12-29T05:20:16;-2.30;99.90
48488;DHT22;34289;48.572;13.378;2022-12-29T05:22:42;-2.30;99.90
48488;DHT22;34289;48.572;13.378;2022-12-29T05:25:08;-2.20;99.90
48488;DHT22;34289;48.572;13.378;2022-12-29T05:27:34;-2.20;99.90
48488;DHT22;34289;48.572;13.378;2022-12-29T05:29:59;-2.10;99.90
48488;DHT22;34289;48.572;13.378;2022-12-29T05:32:25;-1.90;99.90
48488;DHT22;34289;48.572;13.378;2022-12-29T05:34:51;0.60;99.90
48488;DHT22;34289;48.572;13.378;2022-12-29T05:37:16;-1.70;99.90
48488;DHT22;34289;48.572;13.378;2022-12-29T05:39:42;-1.80;99.90
48488;DHT22;34289;48.572;13.378;2022-12-29T05:42:08;-1.70;99.90
48488;DHT22;34289;48.572;13.378;2022-12-29T05:44:33;-1.70;99.90
48488;DHT22;34289;48.572;13.378;2022-12-29T05:46:59;-1.90;99.90
48488;DHT22;34289;48.572;13.378;2022-12-29T05:49:25;-2.00;99.90
48488;DHT22;34289;48.572;13.378;2022-12-29T05:51:50;-2.00;99.90
48488;DHT22;34289;48.572;13.378;2022-12-29T05:54:16;-1.80;99.90
48488;DHT22;34289;48.572;13.378;2022-12-29T05:56:41;-1.60;99.90
48488;DHT22;34289;48.572;13.378;2022-12-29T05:59:07;-1.50;99.90
48488;DHT22;34289;48.572;13.378;2022-12-29T06:01:33;-1.50;99.90
48488;DHT22;34289;48.572;13.378;2022-12-29T06:03:59;-1.30;99.90
48488;DHT22;34289;48.572;13.378;2022-12-29T06:06:25;-1.20;99.90
48488;DHT22;34289;48.572;13.378;2022-12-29T06:08:51;-1.10;99.90
48488;DHT22;34289;48.572;13.378;2022-12-29T06:11:16;-1.10;99.90
48488;DHT22;34289;48.572;13.378;2022-12-29T06:13:42;-1.10;99.90
48488;DHT22;34289;48.572;13.378;2022-12-29T06:16:08;-1.10;99.90
48488;DHT22;34289;48.572;13.378;2022-12-29T06:18:33;-1.10;99.90
48488;DHT22;34289;48.572;13.378;2022-12-29T06:21:04;-1.00;99.90
48488;DHT22;34289;48.572;13.378;2022-12-29T06:23:30;-0.80;99.90
48488;DHT22;34289;48.572;13.378;2022-12-29T06:25:55;-0.60;99.90
48488;DHT22;34289;48.572;13.378;2022-12-29T06:28:21;-0.70;99.90
48488;DHT22;34289;48.572;13.378;2022-12-29T06:30:47;-0.80;99.90
48488;DHT22;34289;48.572;13.378;2022-12-29T06:33:14;-0.80;99.90
48488;DHT22;34289;48.572;13.378;2022-12-29T06:35:41;-0.90;99.90
48488;DHT22;34289;48.572;13.378;2022-12-29T06:38:06;-0.90;99.90
48488;DHT22;34289;48.572;13.378;2022-12-29T06:40:32;-0.80;99.90
48488;DHT22;34289;48.572;13.378;2022-12-29T06:42:58;-0.80;99.90
48488;DHT22;34289;48.572;13.378;2022-12-29T06:45:23;-0.70;99.90
48488;DHT22;34289;48.572;13.378;2022-12-29T06:47:49;-0.50;99.90
48488;DHT22;34289;48.572;13.378;2022-12-29T06:50:14;-0.30;99.90
48488;DHT22;34289;48.572;13.378;2022-12-29T06:52:40;-0.20;99.90
48488;DHT22;34289;48.572;13.378;2022-12-29T06:55:06;-0.10;99.90
48488;DHT22;34289;48.572;13.378;2022-12-29T06:57:32;0.00;99.90
48488;DHT22;34289;48.572;13.378;2022-12-29T06:59:57;0.00;99.90
48488;DHT22;34289;48.572;13.378;2022-12-29T07:02:23;0.00;99.90
48488;DHT22;34289;48.572;13.378;2022-12-29T07:04:51;0.10;99.90
48488;DHT22;34289;48.572;13.378;2022-12-29T07:07:18;0.10;99.90
48488;DHT22;34289;48.572;13.378;2022-12-29T07:09:44;0.20;99.90
48488;DHT22;34289;48.572;13.378;2022-12-29T07:12:09;0.30;99.90
48488;DHT22;34289;48.572;13.378;2022-12-29T07:14:35;0.40;99.90
48488;DHT22;34289;48.572;13.378;2022-12-29T07:17:01;0.40;99.90
48488;DHT22;34289;48.572;13.378;2022-12-29T07:19:30;0.40;99.90
48488;DHT22;34289;48.572;13.378;2022-12-29T07:21:56;0.50;99.90
48488;DHT22;34289;48.572;13.378;2022-12-29T07:24:22;0.60;99.90
48488;DHT22;34289;48.572;13.378;2022-12-29T07:26:47;0.50;99.90
48488;DHT22;34289;48.572;13.378;2022-12-29T07:29:13;0.60;99.90
48488;DHT22;34289;48.572;13.378;2022-12-29T07:31:39;0.60;99.90
48488;DHT22;34289;48.572;13.378;2022-12-29T07:34:04;0.50;99.90
48488;DHT22;34289;48.572;13.378;2022-12-29T07:36:30;0.40;99.90
48488;DHT22;34289;48.572;13.378;2022-12-29T07:38:55;0.20;99.90
48488;DHT22;34289;48.572;13.378;2022-12-29T07:41:21;0.20;99.90
48488;DHT22;34289;48.572;13.378;2022-12-29T07:43:47;0.20;99.90
48488;DHT22;34289;48.572;13.378;2022-12-29T07:46:14;0.50;99.90
48488;DHT22;34289;48.572;13.378;2022-12-29T07:48:39;0.50;99.90
48488;DHT22;34289;48.572;13.378;2022-12-29T07:51:05;0.60;99.90
48488;DHT22;34289;48.572;13.378;2022-12-29T07:53:31;0.70;99.90
48488;DHT22;34289;48.572;13.378;2022-12-29T07:55:57;0.60;99.90
48488;DHT22;34289;48.572;13.378;2022-12-29T07:58:23;0.60;99.90
48488;DHT22;34289;48.572;13.378;2022-12-29T08:00:53;0.60;99.90
48488;DHT22;34289;48.572;13.378;2022-12-29T08:03:19;0.60;99.90
48488;DHT22;34289;48.572;13.378;2022-12-29T08:05:48;1.10;99.90
48488;DHT22;34289;48.572;13.378;2022-12-29T08:08:14;0.90;99.90
48488;DHT22;34289;48.572;13.378;2022-12-29T08:10:40;0.90;99.90
48488;DHT22;34289;48.572;13.378;2022-12-29T08:13:05;0.90;99.90
48488;DHT22;34289;48.572;13.378;2022-12-29T08:15:31;1.00;99.90
48488;DHT22;34289;48.572;13.378;2022-12-29T08:17:57;1.10;99.90
48488;DHT22;34289;48.572;13.378;2022-12-29T08:20:22;1.10;99.90
48488;DHT22;34289;48.572;13.378;2022-12-29T08:22:48;1.20;99.90
48488;DHT22;34289;48.572;13.378;2022-12-29T08:25:14;1.30;99.90
48488;DHT22;34289;48.572;13.378;2022-12-29T08:27:39;1.30;99.90
48488;DHT22;34289;48.572;13.378;2022-12-29T08:30:05;1.30;99.90
48488;DHT22;34289;48.572;13.378;2022-12-29T08:32:31;1.40;99.90
48488;DHT22;34289;48.572;13.378;2022-12-29T08:34:57;1.60;99.90
48488;DHT22;34289;48.572;13.378;2022-12-29T08:37:23;2.20;99.90
48488;DHT22;34289;48.572;13.378;2022-12-29T08:39:48;2.60;99.90
48488;DHT22;34289;48.572;13.378;2022-12-29T08:42:14;2.80;99.90
48488;DHT22;34289;48.572;13.378;2022-12-29T08:44:39;3.00;99.90
48488;DHT22;34289;48.572;13.378;2022-12-29T08:47:05;3.10;99.90
48488;DHT22;34289;48.572;13.378;2022-12-29T08:49:31;3.20;99.90
48488;DHT22;34289;48.572;13.378;2022-12-29T08:51:58;3.40;99.90
48488;DHT22;34289;48.572;13.378;2022-12-29T08:54:24;3.50;99.90
48488;DHT22;34289;48.572;13.378;2022-12-29T08:56:49;3.60;99.90
48488;DHT22;34289;48.572;13.378;2022-12-29T08:59:15;4.10;99.90
48488;DHT22;34289;48.572;13.378;2022-12-29T09:01:41;3.70;99.90
48488;DHT22;34289;48.572;13.378;2022-12-29T09:04:07;3.90;99.90
48488;DHT22;34289;48.572;13.378;2022-12-29T09:06:33;4.70;99.90
48488;DHT22;34289;48.572;13.378;2022-12-29T09:08:59;5.80;99.90
48488;DHT22;34289;48.572;13.378;2022-12-29T09:11:25;8.00;99.90
48488;DHT22;34289;48.572;13.378;2022-12-29T09:13:52;9.60;99.90
48488;DHT22;34289;48.572;13.378;2022-12-29T09:16:19;11.50;99.90
48488;DHT22;34289;48.572;13.378;2022-12-29T09:18:45;12.40;99.90
48488;DHT22;34289;48.572;13.378;2022-12-29T09:21:12;12.40;99.90
48488;DHT22;34289;48.572;13.378;2022-12-29T09:23:38;12.60;99.90
48488;DHT22;34289;48.572;13.378;2022-12-29T09:26:04;13.20;99.90
48488;DHT22;34289;48.572;13.378;2022-12-29T09:28:30;13.20;99.90
48488;DHT22;34289;48.572;13.378;2022-12-29T09:30:57;12.30;99.90
48488;DHT22;34289;48.572;13.378;2022-12-29T09:33:23;11.30;99.90
48488;DHT22;34289;48.572;13.378;2022-12-29T09:35:56;10.40;99.90
48488;DHT22;34289;48.572;13.378;2022-12-29T09:38:25;9.40;99.90
48488;DHT22;34289;48.572;13.378;2022-12-29T09:40:54;8.70;99.90
48488;DHT22;34289;48.572;13.378;2022-12-29T09:46:34;9.30;99.90
48488;DHT22;34289;48.572;13.378;2022-12-29T09:51:52;10.50;99.90
48488;DHT22;34289;48.572;13.378;2022-12-29T09:56:50;9.70;99.90
48488;DHT22;34289;48.572;13.378;2022-12-29T09:59:38;9.20;99.90
48488;DHT22;34289;48.572;13.378;2022-12-29T10:03:00;9.90;99.90
48488;DHT22;34289;48.572;13.378;2022-12-29T10:05:00;11.00;99.90
48488;DHT22;34289;48.572;13.378;2022-12-29T10:07:49;11.90;99.90
48488;DHT22;34289;48.572;13.378;2022-12-29T10:10:43;11.70;99.90
48488;DHT22;34289;48.572;13.378;2022-12-29T10:16:05;10.00;99.90
48488;DHT22;34289;48.572;13.378;2022-12-29T10:19:36;10.10;99.90
48488;DHT22;34289;48.572;13.378;2022-12-29T10:24:21;8.90;99.90
48488;DHT22;34289;48.572;13.378;2022-12-29T10:26:48;8.70;99.90
48488;DHT22;34289;48.572;13.378;2022-12-29T10:29:27;8.50;99.90
48488;DHT22;34289;48.572;13.378;2022-12-29T10:31:59;8.80;99.90
48488;DHT22;34289;48.572;13.378;2022-12-29T10:34:34;7.50;99.90
48488;DHT22;34289;48.572;13.378;2022-12-29T10:39:44;6.30;99.90
48488;DHT22;34289;48.572;13.378;2022-12-29T10:44:45;7.10;99.90
48488;DHT22;34289;48.572;13.378;2022-12-29T10:47:17;6.60;99.90
48488;DHT22;34289;48.572;13.378;2022-12-29T10:49:46;6.90;99.90
48488;DHT22;34289;48.572;13.378;2022-12-29T10:52:13;7.20;99.90
48488;DHT22;34289;48.572;13.378;2022-12-29T10:54:53;7.30;99.90
48488;DHT22;34289;48.572;13.378;2022-12-29T10:57:43;7.10;99.90
48488;DHT22;34289;48.572;13.378;2022-12-29T11:03:07;7.90;99.90
48488;DHT22;34289;48.572;13.378;2022-12-29T11:05:39;8.30;99.90
48488;DHT22;34289;48.572;13.378;2022-12-29T11:08:16;8.60;99.90
48488;DHT22;34289;48.572;13.378;2022-12-29T11:10:44;9.10;99.90
48488;DHT22;34289;48.572;13.378;2022-12-29T11:15:49;9.10;99.90
48488;DHT22;34289;48.572;13.378;2022-12-29T11:18:36;9.00;99.90
48488;DHT22;34289;48.572;13.378;2022-12-29T11:21:05;10.00;99.90
48488;DHT22;34289;48.572;13.378;2022-12-29T11:23:39;9.50;99.90
48488;DHT22;34289;48.572;13.378;2022-12-29T11:28:37;9.20;99.90
48488;DHT22;34289;48.572;13.378;2022-12-29T11:31:05;9.10;99.90
48488;DHT22;34289;48.572;13.378;2022-12-29T11:33:32;8.70;99.90
48488;DHT22;34289;48.572;13.378;2022-12-29T11:36:19;8.40;99.90
48488;DHT22;34289;48.572;13.378;2022-12-29T11:38:48;8.40;99.90
48488;DHT22;34289;48.572;13.378;2022-12-29T11:41:29;8.50;99.90
48488;DHT22;34289;48.572;13.378;2022-12-29T11:44:02;8.20;99.90
48488;DHT22;34289;48.572;13.378;2022-12-29T11:46:34;8.20;99.90
48488;DHT22;34289;48.572;13.378;2022-12-29T11:49:01;8.50;99.90
48488;DHT22;34289;48.572;13.378;2022-12-29T11:51:33;9.00;99.90
48488;DHT22;34289;48.572;13.378;2022-12-29T11:54:01;9.50;99.90
48488;DHT22;34289;48.572;13.378;2022-12-29T11:56:37;9.70;99.90
48488;DHT22;34289;48.572;13.378;2022-12-29T12:02:02;9.60;99.90
48488;DHT22;34289;48.572;13.378;2022-12-29T12:04:32;10.00;99.90
48488;DHT22;34289;48.572;13.378;2022-12-29T12:07:21;10.40;99.90
48488;DHT22;34289;48.572;13.378;2022-12-29T12:09:51;10.40;99.90
48488;DHT22;34289;48.572;13.378;2022-12-29T12:12:28;10.60;99.90
48488;DHT22;34289;48.572;13.378;2022-12-29T12:14:57;10.40;99.90
48488;DHT22;34289;48.572;13.378;2022-12-29T12:17:33;10.50;99.90
48488;DHT22;34289;48.572;13.378;2022-12-29T12:24:00;10.40;99.90
48488;DHT22;34289;48.572;13.378;2022-12-29T12:26:12;9.90;99.90
48488;DHT22;34289;48.572;13.378;2022-12-29T12:28:59;9.60;99.90
48488;DHT22;34289;48.572;13.378;2022-12-29T12:31:45;9.40;99.90
48488;DHT22;34289;48.572;13.378;2022-12-29T12:34:18;9.60;99.90
48488;DHT22;34289;48.572;13.378;2022-12-29T12:42:38;10.00;99.90
48488;DHT22;34289;48.572;13.378;2022-12-29T12:48:17;10.20;99.90
48488;DHT22;34289;48.572;13.378;2022-12-29T13:00:58;9.60;99.90
48488;DHT22;34289;48.572;13.378;2022-12-29T13:03:36;9.40;99.90
48488;DHT22;34289;48.572;13.378;2022-12-29T13:15:01;8.70;99.90
48488;DHT22;34289;48.572;13.378;2022-12-29T13:20:49;8.30;99.90
48488;DHT22;34289;48.572;13.378;2022-12-29T13:26:22;8.10;99.90
48488;DHT22;34289;48.572;13.378;2022-12-29T13:28:55;8.00;99.90
48488;DHT22;34289;48.572;13.378;2022-12-29T13:36:59;8.00;99.90
48488;DHT22;34289;48.572;13.378;2022-12-29T13:39:33;8.50;99.90
48488;DHT22;34289;48.572;13.378;2022-12-29T13:42:01;7.90;99.90
48488;DHT22;34289;48.572;13.378;2022-12-29T13:44:35;7.80;99.90
48488;DHT22;34289;48.572;13.378;2022-12-29T13:47:20;7.80;99.90
48488;DHT22;34289;48.572;13.378;2022-12-29T13:49:50;7.80;99.90
48488;DHT22;34289;48.572;13.378;2022-12-29T13:52:44;7.90;99.90
48488;DHT22;34289;48.572;13.378;2022-12-29T13:58:26;8.50;99.90
48488;DHT22;34289;48.572;13.378;2022-12-29T14:00:58;8.60;99.90
48488;DHT22;34289;48.572;13.378;2022-12-29T14:08:46;8.60;99.90
48488;DHT22;34289;48.572;13.378;2022-12-29T14:11:15;8.90;99.90
48488;DHT22;34289;48.572;13.378;2022-12-29T14:13:44;8.80;99.90
48488;DHT22;34289;48.572;13.378;2022-12-29T14:16:28;9.10;99.90
48488;DHT22;34289;48.572;13.378;2022-12-29T14:18:55;9.00;99.90
48488;DHT22;34289;48.572;13.378;2022-12-29T14:21:25;9.50;99.90
48488;DHT22;34289;48.572;13.378;2022-12-29T14:26:45;8.70;99.90
48488;DHT22;34289;48.572;13.378;2022-12-29T14:29:46;8.40;99.90
48488;DHT22;34289;48.572;13.378;2022-12-29T14:34:54;8.40;99.90
48488;DHT22;34289;48.572;13.378;2022-12-29T14:37:36;8.00;99.90
48488;DHT22;34289;48.572;13.378;2022-12-29T14:42:48;7.60;99.90
48488;DHT22;34289;48.572;13.378;2022-12-29T14:47:45;7.50;99.90
48488;DHT22;34289;48.572;13.378;2022-12-29T14:53:02;7.10;99.90
48488;DHT22;34289;48.572;13.378;2022-12-29T14:55:54;6.80;99.90
48488;DHT22;34289;48.572;13.378;2022-12-29T14:58:30;6.40;99.90
48488;DHT22;34289;48.572;13.378;2022-12-29T15:00:57;6.10;99.90
48488;DHT22;34289;48.572;13.378;2022-12-29T15:03:30;6.00;99.90
48488;DHT22;34289;48.572;13.378;2022-12-29T15:06:14;6.00;99.90
48488;DHT22;34289;48.572;13.378;2022-12-29T15:14:03;6.10;99.90
48488;DHT22;34289;48.572;13.378;2022-12-29T15:16:33;6.30;99.90
48488;DHT22;34289;48.572;13.378;2022-12-29T15:19:01;5.40;99.90
48488;DHT22;34289;48.572;13.378;2022-12-29T15:21:30;5.30;99.90
48488;DHT22;34289;48.572;13.378;2022-12-29T15:23:57;5.10;99.90
48488;DHT22;34289;48.572;13.378;2022-12-29T15:26:23;4.90;99.90
48488;DHT22;34289;48.572;13.378;2022-12-29T15:28:53;4.70;99.90
48488;DHT22;34289;48.572;13.378;2022-12-29T15:31:21;4.60;99.90
48488;DHT22;34289;48.572;13.378;2022-12-29T15:33:50;4.40;99.90
48488;DHT22;34289;48.572;13.378;2022-12-29T15:36:25;4.60;99.90
48488;DHT22;34289;48.572;13.378;2022-12-29T15:38:51;4.40;99.90
48488;DHT22;34289;48.572;13.378;2022-12-29T15:41:23;4.10;99.90
48488;DHT22;34289;48.572;13.378;2022-12-29T15:44:11;3.90;99.90
48488;DHT22;34289;48.572;13.378;2022-12-29T15:46:39;3.80;99.90
48488;DHT22;34289;48.572;13.378;2022-12-29T15:49:08;3.70;99.90
48488;DHT22;34289;48.572;13.378;2022-12-29T15:51:38;3.60;99.90
48488;DHT22;34289;48.572;13.378;2022-12-29T15:54:06;4.30;99.90
48488;DHT22;34289;48.572;13.378;2022-12-29T15:56:41;3.40;99.90
48488;DHT22;34289;48.572;13.378;2022-12-29T16:01:51;3.40;99.90
48488;DHT22;34289;48.572;13.378;2022-12-29T16:04:17;3.30;99.90
48488;DHT22;34289;48.572;13.378;2022-12-29T16:06:58;3.10;99.90
48488;DHT22;34289;48.572;13.378;2022-12-29T16:09:35;3.00;99.90
48488;DHT22;34289;48.572;13.378;2022-12-29T16:12:06;3.00;99.90
48488;DHT22;34289;48.572;13.378;2022-12-29T16:14:45;2.90;99.90
48488;DHT22;34289;48.572;13.378;2022-12-29T16:17:14;2.90;99.90
48488;DHT22;34289;48.572;13.378;2022-12-29T16:19:59;3.00;99.90
48488;DHT22;34289;48.572;13.378;2022-12-29T16:22:34;3.00;99.90
48488;DHT22;34289;48.572;13.378;2022-12-29T16:25:11;3.10;99.90
48488;DHT22;34289;48.572;13.378;2022-12-29T16:27:41;3.00;99.90
48488;DHT22;34289;48.572;13.378;2022-12-29T16:30:19;3.20;99.90
48488;DHT22;34289;48.572;13.378;2022-12-29T16:32:50;2.80;99.90
48488;DHT22;34289;48.572;13.378;2022-12-29T16:35:20;3.10;99.90
48488;DHT22;34289;48.572;13.378;2022-12-29T16:37:46;2.70;99.90
48488;DHT22;34289;48.572;13.378;2022-12-29T16:42:48;2.00;99.90
48488;DHT22;34289;48.572;13.378;2022-12-29T16:47:49;1.90;99.90
48488;DHT22;34289;48.572;13.378;2022-12-29T16:50:26;2.00;99.90
48488;DHT22;34289;48.572;13.378;2022-12-29T16:52:52;2.10;99.90
48488;DHT22;34289;48.572;13.378;2022-12-29T16:55:19;4.20;99.90
48488;DHT22;34289;48.572;13.378;2022-12-29T16:57:47;2.10;99.90
48488;DHT22;34289;48.572;13.378;2022-12-29T17:00:35;2.10;99.90
48488;DHT22;34289;48.572;13.378;2022-12-29T17:03:02;2.20;99.90
48488;DHT22;34289;48.572;13.378;2022-12-29T17:05:28;2.30;99.90
48488;DHT22;34289;48.572;13.378;2022-12-29T17:07:54;2.20;99.90
48488;DHT22;34289;48.572;13.378;2022-12-29T17:10:26;2.30;99.90
48488;DHT22;34289;48.572;13.378;2022-12-29T17:13:11;2.50;99.90
48488;DHT22;34289;48.572;13.378;2022-12-29T17:15:37;2.60;99.90
48488;DHT22;34289;48.572;13.378;2022-12-29T17:18:03;2.50;99.90
48488;DHT22;34289;48.572;13.378;2022-12-29T17:20:30;2.50;99.90
48488;DHT22;34289;48.572;13.378;2022-12-29T17:22:57;2.40;99.90
48488;DHT22;34289;48.572;13.378;2022-12-29T17:25:33;2.30;99.90
48488;DHT22;34289;48.572;13.378;2022-12-29T17:28:06;2.40;99.90
48488;DHT22;34289;48.572;13.378;2022-12-29T17:30:39;2.50;99.90
48488;DHT22;34289;48.572;13.378;2022-12-29T17:33:08;2.40;99.90
48488;DHT22;34289;48.572;13.378;2022-12-29T17:35:36;2.30;99.90
48488;DHT22;34289;48.572;13.378;2022-12-29T17:38:02;2.20;99.90
48488;DHT22;34289;48.572;13.378;2022-12-29T17:40:30;2.10;99.90
48488;DHT22;34289;48.572;13.378;2022-12-29T17:42:58;2.00;99.90
48488;DHT22;34289;48.572;13.378;2022-12-29T17:45:25;2.10;99.90
48488;DHT22;34289;48.572;13.378;2022-12-29T17:47:51;2.30;99.90
48488;DHT22;34289;48.572;13.378;2022-12-29T17:50:25;2.40;99.90
48488;DHT22;34289;48.572;13.378;2022-12-29T17:53:05;2.40;99.90
48488;DHT22;34289;48.572;13.378;2022-12-29T17:55:31;3.30;99.90
48488;DHT22;34289;48.572;13.378;2022-12-29T17:57:57;2.50;99.90
48488;DHT22;34289;48.572;13.378;2022-12-29T18:00:25;2.50;99.90
48488;DHT22;34289;48.572;13.378;2022-12-29T18:02:53;2.40;99.90
48488;DHT22;34289;48.572;13.378;2022-12-29T18:05:37;2.90;99.90
48488;DHT22;34289;48.572;13.378;2022-12-29T18:08:02;2.30;99.90
48488;DHT22;34289;48.572;13.378;2022-12-29T18:10:29;2.30;99.90